Time;durP1;ratioP1;P1;durP2;ratioP2;P2;SDS_P1;SDS_P2;PMS_P1;PMS_P2;Temp;Humidity;BMP_temperature;BMP_pressure;BME280_temperature;BME280_humidity;BME280_pressure;Samples;Min_cycle;Max_cycle;Signal;HPM_P1;HPM_P2
2021/03/09 00:01:56;;;;;;;34.90;23.88;;;;;;;;;;4998936;28;20219;-83
2021/03/09 00:04:22;;;;;;;36.40;22.73;;;;;;;;;;4999020;28;20188;-83
2021/03/09 00:06:48;;;;;;;37.30;24.35;;;;;;;;;;4997735;28;20195;-83
2021/03/09 00:09:14;;;;;;;33.92;23.95;;;;;;;;;;4996804;28;20277;-83
2021/03/09 00:11:40;;;;;;;40.42;23.25;;;;;;;;;;4995861;28;20184;-83
2021/03/09 00:14:06;;;;;;;37.88;22.83;;;;;;;;;;4997571;28;20196;-83
2021/03/09 00:16:32;;;;;;;40.47;24.52;;;;;;;;;;4998727;28;20245;-83
2021/03/09 00:18:58;;;;;;;39.80;24.80;;;;;;;;;;4996257;28;20179;-83
2021/03/09 00:21:24;;;;;;;41.55;24.50;;;;;;;;;;4996291;28;20187;-83
2021/03/09 00:23:50;;;;;;;38.13;23.75;;;;;;;;;;4995978;28;20191;-83
2021/03/09 00:26:16;;;;;;;38.33;22.13;;;;;;;;;;4995352;28;20299;-83
2021/03/09 00:28:42;;;;;;;38.53;22.70;;;;;;;;;;4999675;28;20509;-80
2021/03/09 00:31:08;;;;;;;34.75;21.35;;;;;;;;;;4995709;28;20187;-83
2021/03/09 00:33:34;;;;;;;39.13;22.45;;;;;;;;;;5003273;28;20183;-82
2021/03/09 00:36:00;;;;;;;35.80;23.00;;;;;;;;;;4999608;28;20191;-83
2021/03/09 00:38:26;;;;;;;38.20;22.40;;;;;;;;;;4994945;28;20191;-83
2021/03/09 00:40:52;;;;;;;35.63;22.30;;;;;;;;;;4998762;28;20182;-82
2021/03/09 00:43:18;;;;;;;30.73;21.23;;;;;;;;;;4997163;28;20191;-83
2021/03/09 00:45:44;;;;;;;38.30;21.35;;;;;;;;;;4995365;28;20206;-83
2021/03/09 00:48:10;;;;;;;31.83;20.00;;;;;;;;;;4995385;28;20294;-83
2021/03/09 00:50:36;;;;;;;36.33;23.45;;;;;;;;;;4996383;28;20228;-82
2021/03/09 00:53:02;;;;;;;36.42;23.63;;;;;;;;;;4997570;28;20198;-83
2021/03/09 00:55:28;;;;;;;36.47;22.75;;;;;;;;;;4997871;28;20199;-83
2021/03/09 00:57:57;;;;;;;35.95;21.08;;;;;;;;;;4997007;28;20179;-82
2021/03/09 01:00:24;;;;;;;37.13;22.50;;;;;;;;;;5000633;28;20182;-83
2021/03/09 01:02:50;;;;;;;38.85;21.83;;;;;;;;;;4995033;28;20179;-82
2021/03/09 01:05:16;;;;;;;31.63;20.92;;;;;;;;;;4995069;28;20183;-83
2021/03/09 01:07:42;;;;;;;31.45;20.80;;;;;;;;;;5001692;28;20190;-82
2021/03/09 01:10:09;;;;;;;38.20;23.00;;;;;;;;;;4999313;28;20191;-83
2021/03/09 01:12:35;;;;;;;34.70;20.35;;;;;;;;;;5009254;28;20198;-83
2021/03/09 01:15:00;;;;;;;32.03;19.60;;;;;;;;;;4998907;28;20190;-83
2021/03/09 01:17:26;;;;;;;32.20;20.50;;;;;;;;;;4998266;28;20187;-83
2021/03/09 01:19:52;;;;;;;36.10;21.77;;;;;;;;;;5001884;28;20210;-82
2021/03/09 01:22:18;;;;;;;30.70;19.52;;;;;;;;;;4998538;28;20195;-83
2021/03/09 01:24:44;;;;;;;34.25;22.20;;;;;;;;;;5001312;28;20182;-83
2021/03/09 01:27:11;;;;;;;32.78;21.73;;;;;;;;;;5002420;28;20210;-83
2021/03/09 01:29:37;;;;;;;38.72;20.65;;;;;;;;;;5000364;28;20415;-83
2021/03/09 01:32:03;;;;;;;36.00;20.95;;;;;;;;;;5009270;28;20184;-83
2021/03/09 01:34:29;;;;;;;32.72;19.92;;;;;;;;;;5001172;28;20187;-82
2021/03/09 01:36:55;;;;;;;32.17;19.42;;;;;;;;;;5004372;28;20183;-83
2021/03/09 01:39:21;;;;;;;34.95;21.92;;;;;;;;;;4999887;28;20202;-83
2021/03/09 01:41:48;;;;;;;33.35;21.75;;;;;;;;;;4986254;28;20186;-84
2021/03/09 01:44:14;;;;;;;32.70;19.67;;;;;;;;;;5000736;28;20219;-83
2021/03/09 01:46:41;;;;;;;32.50;19.83;;;;;;;;;;4996936;28;20203;-83
2021/03/09 01:49:07;;;;;;;35.47;21.08;;;;;;;;;;4997985;28;20210;-83
2021/03/09 01:51:33;;;;;;;29.70;19.50;;;;;;;;;;5001638;28;20182;-82
2021/03/09 01:53:59;;;;;;;39.60;21.50;;;;;;;;;;4985547;28;20187;-82
2021/03/09 01:56:25;;;;;;;37.95;20.15;;;;;;;;;;4997974;28;20213;-83
2021/03/09 01:58:52;;;;;;;33.83;21.52;;;;;;;;;;5001899;28;20187;-84
2021/03/09 02:01:18;;;;;;;34.17;21.27;;;;;;;;;;4999567;28;20188;-83
2021/03/09 02:03:44;;;;;;;37.40;20.77;;;;;;;;;;5000434;28;20190;-83
2021/03/09 02:06:12;;;;;;;38.42;21.17;;;;;;;;;;4998806;28;20203;-83
2021/03/09 02:08:38;;;;;;;35.20;21.05;;;;;;;;;;4997624;28;20207;-83
2021/03/09 02:11:08;;;;;;;36.42;21.50;;;;;;;;;;5002338;28;20187;-83
2021/03/09 02:13:34;;;;;;;37.00;21.50;;;;;;;;;;5002858;28;20183;-81
2021/03/09 02:16:01;;;;;;;31.70;19.83;;;;;;;;;;5002325;28;20829;-83
2021/03/09 02:18:39;;;;;;;30.60;19.92;;;;;;;;;;5004298;28;20899;-83
2021/03/09 02:21:31;;;;;;;30.95;19.38;;;;;;;;;;4997296;28;20211;-83
2021/03/09 02:23:57;;;;;;;30.85;17.65;;;;;;;;;;5002469;28;20254;-83
2021/03/09 02:26:23;;;;;;;34.47;20.08;;;;;;;;;;5001803;28;20234;-83
2021/03/09 02:29:08;;;;;;;35.38;19.00;;;;;;;;;;5000446;28;20636;-83
2021/03/09 02:31:35;;;;;;;33.53;19.42;;;;;;;;;;5002244;28;20254;-83
2021/03/09 02:34:06;;;;;;;29.85;20.13;;;;;;;;;;4999048;28;20695;-82
2021/03/09 02:36:33;;;;;;;37.53;20.48;;;;;;;;;;5009638;28;20637;-83
2021/03/09 02:39:01;;;;;;;32.15;19.92;;;;;;;;;;4997018;28;20179;-82
2021/03/09 02:41:28;;;;;;;32.78;18.38;;;;;;;;;;4998334;28;20187;-84
2021/03/09 02:43:55;;;;;;;37.75;20.65;;;;;;;;;;5000217;28;20203;-84
2021/03/09 02:46:22;;;;;;;34.67;21.08;;;;;;;;;;4991066;28;20203;-83
2021/03/09 02:48:49;;;;;;;35.90;21.45;;;;;;;;;;4997834;28;20234;-83
2021/03/09 02:51:15;;;;;;;38.10;21.30;;;;;;;;;;5003682;28;20266;-82
2021/03/09 02:53:46;;;;;;;29.05;18.25;;;;;;;;;;4997382;28;20187;-84
2021/03/09 02:56:14;;;;;;;32.78;20.23;;;;;;;;;;4986510;28;20250;-83
2021/03/09 02:58:40;;;;;;;35.97;19.65;;;;;;;;;;5002172;28;20475;-83
2021/03/09 03:01:07;;;;;;;34.30;19.10;;;;;;;;;;4996773;28;20211;-82
2021/03/09 03:03:33;;;;;;;35.40;20.40;;;;;;;;;;5006116;28;20186;-83
2021/03/09 03:06:00;;;;;;;35.67;21.65;;;;;;;;;;5002484;28;20226;-83
2021/03/09 03:08:29;;;;;;;31.13;19.40;;;;;;;;;;4984736;28;20202;-84
2021/03/09 03:10:56;;;;;;;28.02;18.35;;;;;;;;;;4999567;28;20238;-83
2021/03/09 03:13:23;;;;;;;34.25;20.00;;;;;;;;;;4997665;28;20207;-82
2021/03/09 03:15:51;;;;;;;34.22;21.52;;;;;;;;;;4998932;28;20180;-82
2021/03/09 03:18:18;;;;;;;36.13;21.73;;;;;;;;;;4997917;28;20202;-83
2021/03/09 03:20:45;;;;;;;31.00;18.65;;;;;;;;;;4996247;28;20244;-83
2021/03/09 03:23:12;;;;;;;33.58;18.70;;;;;;;;;;4996878;28;20801;-83
2021/03/09 03:25:38;;;;;;;29.00;19.40;;;;;;;;;;4996798;28;20218;-84
2021/03/09 03:28:07;;;;;;;33.30;20.02;;;;;;;;;;5002246;28;20180;-83
2021/03/09 03:30:33;;;;;;;33.42;20.38;;;;;;;;;;5000493;28;20253;-83
2021/03/09 03:32:59;;;;;;;35.72;20.42;;;;;;;;;;4996820;28;20205;-84
2021/03/09 03:35:25;;;;;;;33.60;21.45;;;;;;;;;;4996206;28;20748;-84
2021/03/09 03:37:51;;;;;;;34.00;20.13;;;;;;;;;;4982929;28;20218;-83
2021/03/09 03:40:19;;;;;;;33.97;21.20;;;;;;;;;;4997558;28;20188;-83
2021/03/09 03:42:45;;;;;;;34.35;20.42;;;;;;;;;;4999615;28;20183;-83
2021/03/09 03:45:12;;;;;;;31.23;18.83;;;;;;;;;;4997257;28;20167;-83
2021/03/09 03:47:39;;;;;;;41.40;19.38;;;;;;;;;;4995958;28;20227;-84
2021/03/09 03:50:06;;;;;;;33.35;18.08;;;;;;;;;;4998427;28;20243;-83
2021/03/09 03:52:39;;;;;;;31.73;18.88;;;;;;;;;;4998995;28;20175;-83
2021/03/09 03:55:11;;;;;;;32.13;19.45;;;;;;;;;;4984867;28;20195;-83
2021/03/09 03:57:41;;;;;;;39.20;21.70;;;;;;;;;;5002232;28;20182;-83
2021/03/09 04:00:08;;;;;;;32.38;18.90;;;;;;;;;;4996584;28;20266;-83
2021/03/09 04:02:36;;;;;;;31.02;18.65;;;;;;;;;;4997122;28;20188;-83
2021/03/09 04:05:04;;;;;;;32.10;19.95;;;;;;;;;;4996692;28;20202;-83
2021/03/09 04:07:32;;;;;;;35.72;20.95;;;;;;;;;;4999152;28;20203;-83
2021/03/09 04:09:58;;;;;;;38.90;21.45;;;;;;;;;;4985443;28;28428;-83
2021/03/09 04:12:25;;;;;;;30.10;18.67;;;;;;;;;;4996398;28;20191;-82
2021/03/09 04:14:51;;;;;;;32.20;18.80;;;;;;;;;;4983466;28;20190;-83
2021/03/09 04:17:19;;;;;;;30.15;18.83;;;;;;;;;;4996071;28;20198;-83
2021/03/09 04:19:46;;;;;;;29.45;18.75;;;;;;;;;;5003511;28;20247;-82
2021/03/09 04:22:12;;;;;;;31.77;21.30;;;;;;;;;;4997541;28;20196;-80
2021/03/09 04:24:39;;;;;;;35.45;20.10;;;;;;;;;;4999390;28;20415;-81
2021/03/09 04:27:05;;;;;;;33.63;19.23;;;;;;;;;;4995524;28;20217;-82
2021/03/09 04:29:31;;;;;;;29.95;18.50;;;;;;;;;;4995467;28;20190;-82
2021/03/09 04:31:58;;;;;;;30.40;17.80;;;;;;;;;;4999476;28;20191;-83
2021/03/09 04:34:24;;;;;;;27.58;17.70;;;;;;;;;;5010642;28;20217;-81
2021/03/09 04:36:51;;;;;;;31.83;18.15;;;;;;;;;;5001834;28;20175;-83
2021/03/09 04:39:17;;;;;;;34.90;20.73;;;;;;;;;;4997047;28;20187;-83
2021/03/09 04:41:43;;;;;;;28.63;18.08;;;;;;;;;;4993528;28;20225;-83
2021/03/09 04:44:09;;;;;;;30.80;18.60;;;;;;;;;;4999587;28;20188;-83
2021/03/09 04:46:35;;;;;;;37.10;18.20;;;;;;;;;;4992947;28;20242;-82
2021/03/09 04:49:02;;;;;;;38.05;21.15;;;;;;;;;;5001155;28;20236;-83
2021/03/09 04:51:28;;;;;;;34.08;19.77;;;;;;;;;;4996601;28;20189;-82
2021/03/09 04:53:54;;;;;;;34.25;19.60;;;;;;;;;;4994024;28;20593;-83
2021/03/09 04:56:20;;;;;;;34.00;18.45;;;;;;;;;;4995255;28;20322;-79
2021/03/09 04:58:46;;;;;;;28.50;18.10;;;;;;;;;;4970023;28;20183;-82
2021/03/09 05:01:12;;;;;;;32.67;20.08;;;;;;;;;;5000327;28;20521;-82
2021/03/09 05:03:38;;;;;;;33.80;19.42;;;;;;;;;;4999748;28;20202;-81
2021/03/09 05:06:04;;;;;;;29.23;19.30;;;;;;;;;;4982926;28;20214;-83
2021/03/09 05:08:30;;;;;;;31.58;18.55;;;;;;;;;;4995686;28;20211;-82
2021/03/09 05:10:56;;;;;;;31.95;19.13;;;;;;;;;;4996637;28;20186;-82
2021/03/09 05:13:22;;;;;;;35.53;19.95;;;;;;;;;;4998353;28;20183;-81
2021/03/09 05:15:48;;;;;;;33.33;20.65;;;;;;;;;;5002479;28;20251;-81
2021/03/09 05:18:15;;;;;;;33.13;19.73;;;;;;;;;;4995076;28;20207;-83
2021/03/09 05:20:41;;;;;;;28.05;17.80;;;;;;;;;;4995095;28;20266;-82
2021/03/09 05:23:07;;;;;;;34.65;18.95;;;;;;;;;;4995039;28;20188;-82
2021/03/09 05:25:33;;;;;;;31.05;20.90;;;;;;;;;;4999249;28;20205;-82
2021/03/09 05:27:59;;;;;;;31.35;18.55;;;;;;;;;;4985405;28;20207;-82
2021/03/09 05:30:25;;;;;;;28.38;19.10;;;;;;;;;;4997113;28;20179;-83
2021/03/09 05:32:51;;;;;;;30.13;19.10;;;;;;;;;;4994641;28;20183;-83
2021/03/09 05:35:18;;;;;;;36.00;21.38;;;;;;;;;;4993809;28;20188;-82
2021/03/09 05:37:45;;;;;;;32.63;18.45;;;;;;;;;;4999374;28;20195;-81
2021/03/09 05:40:11;;;;;;;31.38;19.02;;;;;;;;;;4994138;28;20191;-82
2021/03/09 05:42:37;;;;;;;36.70;21.90;;;;;;;;;;4986685;28;20195;-83
2021/03/09 05:45:04;;;;;;;33.42;19.95;;;;;;;;;;4995464;28;20187;-82
2021/03/09 05:47:30;;;;;;;39.83;19.73;;;;;;;;;;4996060;28;20252;-81
2021/03/09 05:49:58;;;;;;;34.83;20.33;;;;;;;;;;4997545;28;20279;-83
2021/03/09 05:52:24;;;;;;;30.70;18.38;;;;;;;;;;4996642;28;20179;-82
2021/03/09 05:54:50;;;;;;;31.73;20.55;;;;;;;;;;5000442;28;20203;-82
2021/03/09 05:57:16;;;;;;;34.67;19.42;;;;;;;;;;5005054;28;20179;-83
2021/03/09 05:59:42;;;;;;;36.03;19.65;;;;;;;;;;4997697;28;20242;-83
2021/03/09 06:02:08;;;;;;;30.42;19.80;;;;;;;;;;5000990;28;20187;-82
2021/03/09 06:04:35;;;;;;;33.80;19.38;;;;;;;;;;5004035;28;20187;-83
2021/03/09 06:07:01;;;;;;;34.72;19.80;;;;;;;;;;4988979;28;20199;-83
2021/03/09 06:09:47;;;;;;;33.58;18.75;;;;;;;;;;5000367;28;20186;-84
2021/03/09 06:12:15;;;;;;;36.03;20.77;;;;;;;;;;4988267;28;20179;-84
2021/03/09 06:14:56;;;;;;;38.47;19.63;;;;;;;;;;5003303;28;20219;-83
2021/03/09 06:17:29;;;;;;;37.95;19.88;;;;;;;;;;4998200;28;20186;-82
2021/03/09 06:19:55;;;;;;;38.53;21.45;;;;;;;;;;5000816;28;20222;-84
2021/03/09 06:22:37;;;;;;;33.40;19.75;;;;;;;;;;5000279;28;20187;-83
2021/03/09 06:25:04;;;;;;;39.10;19.92;;;;;;;;;;5003260;28;20271;-83
2021/03/09 06:27:31;;;;;;;46.40;22.13;;;;;;;;;;5001463;28;20229;-83
2021/03/09 06:29:58;;;;;;;37.22;22.73;;;;;;;;;;5001974;28;20187;-84
2021/03/09 06:32:24;;;;;;;43.15;24.50;;;;;;;;;;4996309;28;20180;-84
2021/03/09 06:34:51;;;;;;;43.25;23.98;;;;;;;;;;5001767;28;20191;-84
2021/03/09 06:37:27;;;;;;;36.88;22.98;;;;;;;;;;4997645;28;20191;-83
2021/03/09 06:39:53;;;;;;;35.28;22.17;;;;;;;;;;5000332;28;20171;-83
2021/03/09 06:42:21;;;;;;;35.65;20.77;;;;;;;;;;5004259;28;20202;-81
2021/03/09 06:44:52;;;;;;;35.03;19.45;;;;;;;;;;4996682;28;20184;-83
2021/03/09 06:47:18;;;;;;;39.60;21.23;;;;;;;;;;4997581;28;20203;-83
2021/03/09 06:49:50;;;;;;;37.70;22.08;;;;;;;;;;4998666;28;20254;-81
2021/03/09 06:52:16;;;;;;;38.40;22.15;;;;;;;;;;5012374;28;20693;-82
2021/03/09 06:54:47;;;;;;;37.50;21.75;;;;;;;;;;4991266;28;20186;-82
2021/03/09 06:57:13;;;;;;;39.38;22.67;;;;;;;;;;4999703;28;20202;-83
2021/03/09 06:59:42;;;;;;;38.08;22.23;;;;;;;;;;4987368;28;20556;-83
2021/03/09 07:02:11;;;;;;;39.60;22.38;;;;;;;;;;4984671;28;20641;-82
2021/03/09 07:04:41;;;;;;;31.25;20.25;;;;;;;;;;5001226;28;20192;-83
2021/03/09 07:07:08;;;;;;;40.45;21.88;;;;;;;;;;4997626;28;20210;-83
2021/03/09 07:09:34;;;;;;;41.30;23.15;;;;;;;;;;4999317;28;20262;-81
2021/03/09 07:12:02;;;;;;;41.08;23.02;;;;;;;;;;4997391;28;20175;-83
2021/03/09 07:14:29;;;;;;;38.72;22.02;;;;;;;;;;4984747;28;20190;-82
2021/03/09 07:16:55;;;;;;;33.95;20.60;;;;;;;;;;4998474;28;20199;-83
2021/03/09 07:19:29;;;;;;;37.55;21.30;;;;;;;;;;4999050;28;20218;-82
2021/03/09 07:21:56;;;;;;;36.10;21.48;;;;;;;;;;4987674;28;20179;-82
2021/03/09 07:24:22;;;;;;;37.10;19.75;;;;;;;;;;4998850;28;20179;-83
2021/03/09 07:26:55;;;;;;;33.75;19.85;;;;;;;;;;4996761;28;20253;-83
2021/03/09 07:29:22;;;;;;;38.10;21.63;;;;;;;;;;4997361;28;20195;-82
2021/03/09 07:31:48;;;;;;;35.63;20.75;;;;;;;;;;4984330;28;20180;-83
2021/03/09 07:34:15;;;;;;;34.15;20.60;;;;;;;;;;5001229;28;20188;-83
2021/03/09 07:36:41;;;;;;;39.25;20.60;;;;;;;;;;4999735;28;20186;-82
2021/03/09 07:39:07;;;;;;;33.17;20.63;;;;;;;;;;5001518;28;20207;-85
2021/03/09 07:41:35;;;;;;;35.63;20.05;;;;;;;;;;5004643;28;20194;-84
2021/03/09 07:44:01;;;;;;;35.28;21.50;;;;;;;;;;4980124;28;20271;-82
2021/03/09 07:46:27;;;;;;;35.47;20.85;;;;;;;;;;4997471;28;20231;-86
2021/03/09 07:48:54;;;;;;;39.40;21.08;;;;;;;;;;4987885;28;20562;-84
2021/03/09 07:51:21;;;;;;;39.92;21.02;;;;;;;;;;4996480;28;20251;-83
2021/03/09 07:54:06;;;;;;;38.97;22.23;;;;;;;;;;4999735;28;20201;-81
2021/03/09 07:56:32;;;;;;;30.85;17.83;;;;;;;;;;5003310;28;20191;-82
2021/03/09 07:59:06;;;;;;;37.17;21.00;;;;;;;;;;4985149;28;20609;-82
2021/03/09 08:01:45;;;;;;;35.58;19.98;;;;;;;;;;5005045;28;20210;-81
2021/03/09 08:04:11;;;;;;;37.53;21.83;;;;;;;;;;4999106;28;20189;-82
2021/03/09 08:06:41;;;;;;;37.53;22.70;;;;;;;;;;5006740;28;20731;-81
2021/03/09 08:09:07;;;;;;;39.10;20.50;;;;;;;;;;5002270;28;20235;-81
2021/03/09 08:11:33;;;;;;;38.15;22.52;;;;;;;;;;5000875;28;20186;-82
2021/03/09 08:14:05;;;;;;;39.20;18.97;;;;;;;;;;5001246;28;20183;-81
2021/03/09 08:16:31;;;;;;;36.70;22.15;;;;;;;;;;5000124;28;20469;-82
2021/03/09 08:18:58;;;;;;;36.85;21.73;;;;;;;;;;4986408;28;20179;-81
2021/03/09 08:21:40;;;;;;;40.15;24.40;;;;;;;;;;5003678;28;20202;-82
2021/03/09 08:24:06;;;;;;;39.05;21.38;;;;;;;;;;5001468;28;20187;-82
2021/03/09 08:26:32;;;;;;;45.22;22.00;;;;;;;;;;5002168;28;20206;-81
2021/03/09 08:28:58;;;;;;;38.50;21.30;;;;;;;;;;5001714;28;20183;-82
2021/03/09 08:31:26;;;;;;;36.85;21.75;;;;;;;;;;5003221;28;20439;-81
2021/03/09 08:34:07;;;;;;;36.15;22.92;;;;;;;;;;5000081;28;20167;-81
2021/03/09 08:36:36;;;;;;;44.05;24.90;;;;;;;;;;5008399;28;20234;-79
2021/03/09 08:41:37;;;;;;;39.13;22.95;;;;;;;;;;4995010;28;20223;-83
2021/03/09 08:44:15;;;;;;;39.60;23.50;;;;;;;;;;4985263;28;20237;-82
2021/03/09 08:47:04;;;;;;;31.73;20.63;;;;;;;;;;5001970;28;20206;-82
2021/03/09 08:49:38;;;;;;;31.02;19.90;;;;;;;;;;4990458;28;20222;-82
2021/03/09 08:52:07;;;;;;;35.50;20.50;;;;;;;;;;5000080;28;20647;-83
2021/03/09 08:54:35;;;;;;;41.55;22.10;;;;;;;;;;5002936;28;20168;-82
2021/03/09 08:57:02;;;;;;;40.72;22.73;;;;;;;;;;4999514;28;20183;-81
2021/03/09 08:59:32;;;;;;;42.42;23.65;;;;;;;;;;4999827;28;20221;-82
2021/03/09 09:02:11;;;;;;;37.53;20.40;;;;;;;;;;4981921;28;20183;-82
2021/03/09 09:04:38;;;;;;;40.80;21.77;;;;;;;;;;5008228;28;20213;-82
2021/03/09 09:07:21;;;;;;;35.65;18.98;;;;;;;;;;4998266;28;20548;-82
2021/03/09 09:09:47;;;;;;;30.45;18.08;;;;;;;;;;4996148;28;20167;-80
2021/03/09 09:12:22;;;;;;;29.40;17.38;;;;;;;;;;4999265;28;20171;-82
2021/03/09 09:15:09;;;;;;;28.13;17.15;;;;;;;;;;4999673;28;20183;-82
2021/03/09 09:17:35;;;;;;;29.90;18.13;;;;;;;;;;4984292;28;20205;-83
2021/03/09 09:20:04;;;;;;;30.05;18.30;;;;;;;;;;5001512;28;20565;-81
2021/03/09 09:22:31;;;;;;;25.50;16.58;;;;;;;;;;5000719;28;20248;-83
2021/03/09 09:24:57;;;;;;;27.95;16.67;;;;;;;;;;5001344;28;20584;-82
2021/03/09 09:27:24;;;;;;;22.63;13.70;;;;;;;;;;4998993;28;20213;-75
2021/03/09 09:29:54;;;;;;;21.63;11.95;;;;;;;;;;5001965;28;20246;-75
2021/03/09 09:32:20;;;;;;;23.58;13.18;;;;;;;;;;5002976;28;20186;-80
2021/03/09 09:34:46;;;;;;;23.88;13.10;;;;;;;;;;5003105;28;20506;-79
2021/03/09 09:37:16;;;;;;;23.15;13.10;;;;;;;;;;5006419;28;20179;-80
2021/03/09 09:39:43;;;;;;;21.30;13.35;;;;;;;;;;5004636;28;20175;-79
2021/03/09 09:42:13;;;;;;;17.90;10.05;;;;;;;;;;5003403;28;20187;-74
2021/03/09 09:44:39;;;;;;;19.23;10.32;;;;;;;;;;5005015;28;20187;-74
2021/03/09 09:47:05;;;;;;;19.83;12.45;;;;;;;;;;5001230;28;20234;-75
2021/03/09 09:49:31;;;;;;;18.48;10.48;;;;;;;;;;5002526;28;20235;-74
2021/03/09 09:51:57;;;;;;;18.92;11.05;;;;;;;;;;5003591;28;20190;-75
2021/03/09 09:54:23;;;;;;;17.65;11.70;;;;;;;;;;5004760;28;20175;-74
2021/03/09 09:56:49;;;;;;;18.10;13.13;;;;;;;;;;5004348;28;20234;-75
2021/03/09 09:59:26;;;;;;;23.88;15.10;;;;;;;;;;5001816;28;20209;-74
2021/03/09 10:01:52;;;;;;;21.45;15.63;;;;;;;;;;4993017;28;20187;-75
2021/03/09 10:04:18;;;;;;;26.92;17.33;;;;;;;;;;5001265;28;20191;-75
2021/03/09 10:06:45;;;;;;;27.98;17.55;;;;;;;;;;5004936;28;20203;-75
2021/03/09 10:09:19;;;;;;;31.13;19.45;;;;;;;;;;5006402;28;20223;-75
2021/03/09 10:11:49;;;;;;;33.85;19.35;;;;;;;;;;4985305;28;20205;-74
2021/03/09 10:14:15;;;;;;;32.50;21.42;;;;;;;;;;5003138;28;20210;-74
2021/03/09 10:16:42;;;;;;;42.30;22.23;;;;;;;;;;5002343;28;20242;-74
2021/03/09 10:19:09;;;;;;;34.97;23.23;;;;;;;;;;4997345;28;20186;-74
2021/03/09 10:21:36;;;;;;;35.05;21.20;;;;;;;;;;5005238;28;20314;-75
2021/03/09 10:24:03;;;;;;;33.00;21.80;;;;;;;;;;5001612;28;20187;-75
2021/03/09 10:26:34;;;;;;;32.35;21.65;;;;;;;;;;5004551;28;20205;-77
2021/03/09 10:29:03;;;;;;;37.67;22.67;;;;;;;;;;5000907;28;20214;-77
2021/03/09 10:31:39;;;;;;;34.28;21.65;;;;;;;;;;5001002;28;20180;-76
2021/03/09 10:34:05;;;;;;;34.35;21.40;;;;;;;;;;5001417;28;20212;-75
2021/03/09 10:36:47;;;;;;;34.80;20.13;;;;;;;;;;5005515;28;20179;-77
2021/03/09 10:39:13;;;;;;;36.95;22.63;;;;;;;;;;5003068;28;20497;-76
2021/03/09 10:41:39;;;;;;;30.77;20.20;;;;;;;;;;4999788;28;20565;-75
2021/03/09 10:44:05;;;;;;;35.80;21.27;;;;;;;;;;4995542;28;20238;-75
2021/03/09 10:46:34;;;;;;;31.67;20.27;;;;;;;;;;5005745;28;20211;-75
2021/03/09 10:49:00;;;;;;;33.67;19.48;;;;;;;;;;5000411;28;20241;-75
2021/03/09 10:51:27;;;;;;;37.42;20.88;;;;;;;;;;4996962;28;20303;-75
2021/03/09 10:53:53;;;;;;;30.60;19.33;;;;;;;;;;5001523;28;20225;-75
2021/03/09 10:56:19;;;;;;;32.97;21.92;;;;;;;;;;4998244;28;20238;-76
2021/03/09 10:58:45;;;;;;;29.48;20.05;;;;;;;;;;5000899;28;20175;-75
2021/03/09 11:01:11;;;;;;;29.13;18.33;;;;;;;;;;5003110;28;20187;-76
2021/03/09 11:03:37;;;;;;;29.50;20.77;;;;;;;;;;5003656;28;20756;-75
2021/03/09 11:06:03;;;;;;;25.80;18.00;;;;;;;;;;4983046;28;20211;-76
2021/03/09 11:08:29;;;;;;;26.08;16.63;;;;;;;;;;5000102;28;20209;-75
2021/03/09 11:10:56;;;;;;;29.48;18.60;;;;;;;;;;4997362;28;20223;-76
2021/03/09 11:13:26;;;;;;;22.55;17.20;;;;;;;;;;5000344;28;20187;-76
2021/03/09 11:15:52;;;;;;;29.58;17.95;;;;;;;;;;5000329;28;20179;-76
2021/03/09 11:18:18;;;;;;;28.80;19.07;;;;;;;;;;5001934;28;20175;-77
2021/03/09 11:20:44;;;;;;;30.50;18.67;;;;;;;;;;4997459;28;20442;-77
2021/03/09 11:23:10;;;;;;;23.63;16.73;;;;;;;;;;4997825;28;20712;-77
2021/03/09 11:25:37;;;;;;;23.75;17.90;;;;;;;;;;4997999;28;20188;-75
2021/03/09 11:28:05;;;;;;;25.63;18.02;;;;;;;;;;4999807;28;20199;-76
2021/03/09 11:30:32;;;;;;;26.77;18.55;;;;;;;;;;5002422;28;20560;-76
2021/03/09 11:32:58;;;;;;;22.50;17.20;;;;;;;;;;4983619;28;20183;-77
2021/03/09 11:35:24;;;;;;;22.85;16.38;;;;;;;;;;4999461;28;20187;-75
2021/03/09 11:37:50;;;;;;;29.60;18.48;;;;;;;;;;4998443;28;20213;-75
2021/03/09 11:40:16;;;;;;;27.02;17.55;;;;;;;;;;4999264;28;20660;-77
2021/03/09 11:42:42;;;;;;;27.90;18.95;;;;;;;;;;5000566;28;20195;-77
2021/03/09 11:45:08;;;;;;;26.17;17.73;;;;;;;;;;4999319;28;20302;-75
2021/03/09 11:47:35;;;;;;;25.33;17.05;;;;;;;;;;4984273;28;20470;-74
2021/03/09 11:50:03;;;;;;;27.67;17.88;;;;;;;;;;4983412;28;20198;-74
2021/03/09 11:52:29;;;;;;;24.67;18.63;;;;;;;;;;5000535;28;20187;-75
2021/03/09 11:54:55;;;;;;;26.60;18.70;;;;;;;;;;5002468;28;20167;-75
2021/03/09 11:57:21;;;;;;;23.10;17.90;;;;;;;;;;5002763;28;20429;-75
2021/03/09 11:59:47;;;;;;;25.93;19.43;;;;;;;;;;5000607;28;20449;-75
2021/03/09 12:02:13;;;;;;;26.90;19.75;;;;;;;;;;5000306;28;20453;-75
2021/03/09 12:04:40;;;;;;;27.07;17.40;;;;;;;;;;5000355;28;20179;-75
2021/03/09 12:07:06;;;;;;;26.23;19.10;;;;;;;;;;5000667;28;20463;-74
2021/03/09 12:09:32;;;;;;;28.52;20.33;;;;;;;;;;5008600;28;20263;-74
2021/03/09 12:11:58;;;;;;;27.05;19.35;;;;;;;;;;4999429;28;20210;-74
2021/03/09 12:14:24;;;;;;;28.60;19.40;;;;;;;;;;4996665;28;20723;-74
2021/03/09 12:16:50;;;;;;;25.17;19.65;;;;;;;;;;5001477;28;20183;-74
2021/03/09 12:19:16;;;;;;;23.13;18.40;;;;;;;;;;5000223;28;20682;-76
2021/03/09 12:21:42;;;;;;;23.63;21.00;;;;;;;;;;5002617;28;20444;-74
2021/03/09 12:24:08;;;;;;;26.60;19.87;;;;;;;;;;4984593;28;20436;-74
2021/03/09 12:26:34;;;;;;;25.42;21.13;;;;;;;;;;4999896;28;20537;-77
2021/03/09 12:29:00;;;;;;;24.07;20.50;;;;;;;;;;4999547;28;20183;-75
2021/03/09 12:31:26;;;;;;;22.30;19.07;;;;;;;;;;5000496;28;20426;-72
2021/03/09 12:33:52;;;;;;;24.13;20.40;;;;;;;;;;5000522;28;20919;-73
2021/03/09 12:36:18;;;;;;;20.63;17.37;;;;;;;;;;5000388;28;20437;-74
2021/03/09 12:38:45;;;;;;;21.77;16.90;;;;;;;;;;5000974;28;20886;-73
2021/03/09 12:41:11;;;;;;;22.60;17.57;;;;;;;;;;4996350;28;20780;-73
2021/03/09 12:43:36;;;;;;;21.47;17.13;;;;;;;;;;5000730;28;20412;-73
2021/03/09 12:46:03;;;;;;;21.50;18.40;;;;;;;;;;5000015;28;20511;-74
2021/03/09 12:48:29;;;;;;;25.57;20.37;;;;;;;;;;5008284;28;20484;-75
2021/03/09 12:50:55;;;;;;;22.90;19.23;;;;;;;;;;5000154;28;20450;-76
2021/03/09 12:53:21;;;;;;;22.70;18.53;;;;;;;;;;4981930;28;20529;-79
2021/03/09 12:55:47;;;;;;;18.77;16.63;;;;;;;;;;4998538;28;20440;-77
2021/03/09 12:58:13;;;;;;;19.50;17.37;;;;;;;;;;4999626;28;20430;-77
2021/03/09 13:00:38;;;;;;;30.17;21.60;;;;;;;;;;5004532;28;20484;-77
2021/03/09 13:03:05;;;;;;;20.40;17.37;;;;;;;;;;5001089;28;20502;-78
2021/03/09 13:05:31;;;;;;;22.08;17.60;;;;;;;;;;5003765;28;20433;-77
2021/03/09 13:07:57;;;;;;;23.08;18.33;;;;;;;;;;5002604;28;20571;-78
2021/03/09 13:10:23;;;;;;;19.27;15.63;;;;;;;;;;5015015;28;20552;-77
2021/03/09 13:12:48;;;;;;;23.13;13.90;;;;;;;;;;5005710;28;20522;-77
2021/03/09 13:15:15;;;;;;;17.53;13.20;;;;;;;;;;5004666;28;20433;-76
2021/03/09 13:17:41;;;;;;;16.92;12.90;;;;;;;;;;5004905;28;20469;-77
2021/03/09 13:20:08;;;;;;;24.52;15.50;;;;;;;;;;5003444;28;20194;-78
2021/03/09 13:22:34;;;;;;;17.77;14.00;;;;;;;;;;5009101;28;20194;-76
2021/03/09 13:25:01;;;;;;;14.32;11.90;;;;;;;;;;5003227;28;20201;-77
2021/03/09 13:27:28;;;;;;;15.32;12.48;;;;;;;;;;5010574;28;20230;-77
2021/03/09 13:29:54;;;;;;;14.48;11.63;;;;;;;;;;5002801;28;20207;-77
2021/03/09 13:32:20;;;;;;;15.57;11.75;;;;;;;;;;5005164;28;20190;-75
2021/03/09 13:34:46;;;;;;;17.05;12.95;;;;;;;;;;5003742;28;20186;-79
2021/03/09 13:37:12;;;;;;;16.10;12.73;;;;;;;;;;5003174;28;20211;-76
2021/03/09 13:39:38;;;;;;;15.15;12.50;;;;;;;;;;5003318;28;20423;-77
2021/03/09 13:42:04;;;;;;;18.80;11.93;;;;;;;;;;5004398;28;20216;-78
2021/03/09 13:44:30;;;;;;;16.27;11.32;;;;;;;;;;4987859;28;20201;-76
2021/03/09 13:46:56;;;;;;;16.38;9.93;;;;;;;;;;5003999;28;20236;-78
2021/03/09 13:49:22;;;;;;;11.75;9.73;;;;;;;;;;5001945;28;20337;-77
2021/03/09 13:51:48;;;;;;;14.35;10.75;;;;;;;;;;5003047;28;20251;-77
2021/03/09 13:54:14;;;;;;;14.13;11.30;;;;;;;;;;5004237;28;20362;-77
2021/03/09 13:56:40;;;;;;;13.47;9.70;;;;;;;;;;5003564;28;21017;-79
2021/03/09 13:59:06;;;;;;;16.80;11.90;;;;;;;;;;4999687;28;20434;-78
2021/03/09 14:01:32;;;;;;;12.10;9.90;;;;;;;;;;5001773;28;20538;-77
2021/03/09 14:03:58;;;;;;;11.73;9.80;;;;;;;;;;5004306;28;20431;-76
2021/03/09 14:06:24;;;;;;;14.15;11.27;;;;;;;;;;5004078;28;20219;-79
2021/03/09 14:08:50;;;;;;;13.20;10.70;;;;;;;;;;5001649;28;20193;-78
2021/03/09 14:11:16;;;;;;;13.33;11.33;;;;;;;;;;5003242;28;20439;-77
2021/03/09 14:13:42;;;;;;;15.32;12.05;;;;;;;;;;5003705;28;20461;-80
2021/03/09 14:16:08;;;;;;;19.50;13.48;;;;;;;;;;5001014;28;20191;-78
2021/03/09 14:18:34;;;;;;;14.70;12.27;;;;;;;;;;5004332;28;20179;-78
2021/03/09 14:21:00;;;;;;;17.77;14.27;;;;;;;;;;5001754;28;20500;-78